createdAt,value
2022-09-11T00:03:47.258Z,48.75
2022-09-11T00:08:53.907Z,49.22
2022-09-11T00:13:56.709Z,49.09
2022-09-11T00:19:00.850Z,48.94
2022-09-11T00:24:04.068Z,49.21
2022-09-11T00:29:06.186Z,49.29
2022-09-11T00:34:09.694Z,49.87
2022-09-11T00:39:12.631Z,49.49
2022-09-11T00:44:17.938Z,50.38
2022-09-11T00:49:26.186Z,50.49
2022-09-11T00:54:32.552Z,51.26
2022-09-11T00:59:35.230Z,51.67
2022-09-11T01:04:37.887Z,51.92
2022-09-11T01:09:40.390Z,51.80
2022-09-11T01:15:21.232Z,50.91
2022-09-11T01:20:39.033Z,51.52
2022-09-11T01:26:07.687Z,51.57
2022-09-11T01:31:12.628Z,52.04
2022-09-11T01:36:22.644Z,52.08
2022-09-11T01:41:30.458Z,52.57
2022-09-11T01:46:39.026Z,52.45
2022-09-11T01:51:41.876Z,53.21
2022-09-11T01:56:53.228Z,52.32
2022-09-11T02:02:03.892Z,53.34
2022-09-11T02:07:36.116Z,51.42
2022-09-11T02:12:41.137Z,47.88
2022-09-11T02:17:48.254Z,52.96
2022-09-11T02:22:50.801Z,53.56
2022-09-11T02:27:52.760Z,47.25
2022-09-11T02:39:47.804Z,54.02
2022-09-11T02:45:10.118Z,53.23
2022-09-11T02:50:36.997Z,53.70
2022-09-11T02:56:03.372Z,53.19
2022-09-11T03:01:08.931Z,53.90
2022-09-11T03:06:16.802Z,54.46
2022-09-11T03:11:20.162Z,54.25
2022-09-11T03:16:24.802Z,54.95
2022-09-11T03:21:27.074Z,54.06
2022-09-11T03:26:29.707Z,54.69
2022-09-11T03:31:36.259Z,54.40
2022-09-11T03:36:41.055Z,54.23
2022-09-11T03:41:43.322Z,53.85
2022-09-11T03:46:45.996Z,53.82
2022-09-11T03:51:48.060Z,53.61
2022-09-11T03:56:50.067Z,49.64
2022-09-11T04:01:52.988Z,53.29
2022-09-11T04:06:55.836Z,53.61
2022-09-11T04:11:58.904Z,53.36
2022-09-11T04:17:03.431Z,53.15
2022-09-11T04:22:05.648Z,52.89
2022-09-11T04:27:13.016Z,52.67
2022-09-11T04:32:15.077Z,49.11
2022-09-11T04:37:17.221Z,51.30
2022-09-11T04:42:20.330Z,50.62
2022-09-11T04:47:23.011Z,50.19
2022-09-11T04:52:25.369Z,50.02
2022-09-11T04:57:30.320Z,49.47
2022-09-11T05:02:33.682Z,48.37
2022-09-11T05:07:36.480Z,45.52
2022-09-11T05:12:40.285Z,43.34
2022-09-11T05:17:43.821Z,42.15
2022-09-11T05:22:47.196Z,39.95
2022-09-11T05:27:49.488Z,38.07
2022-09-11T05:32:55.445Z,36.01
2022-09-11T05:37:57.757Z,34.73
2022-09-11T05:43:00.094Z,32.90
2022-09-11T05:48:03.556Z,31.99
2022-09-11T05:53:08.662Z,30.54
2022-09-11T05:58:11.366Z,29.22
2022-09-11T06:03:19.295Z,28.64
2022-09-11T06:08:21.420Z,27.78
2022-09-11T06:13:31.910Z,26.58
2022-09-11T06:18:36.340Z,25.16
2022-09-11T06:23:41.886Z,24.80
2022-09-11T06:28:47.717Z,24.23
2022-09-11T06:33:51.425Z,23.58
2022-09-11T06:38:55.554Z,23.70
2022-09-11T06:43:59.509Z,24.27
2022-09-11T06:49:04.496Z,23.86
2022-09-11T06:54:06.728Z,23.71
2022-09-11T06:59:11.069Z,24.12
2022-09-11T07:04:13.420Z,23.83
2022-09-11T07:09:16.858Z,23.73
2022-09-11T07:14:25.038Z,23.41
2022-09-11T07:19:33.809Z,24.65
2022-09-11T07:24:37.360Z,22.99
2022-09-11T07:29:40.260Z,22.10
2022-09-11T07:34:43.247Z,21.24
2022-09-11T07:39:47.217Z,19.92
2022-09-11T07:44:56.667Z,17.96
2022-09-11T07:49:58.789Z,17.90
2022-09-11T07:55:01.507Z,18.17
2022-09-11T08:00:07.443Z,18.48
2022-09-11T08:05:22.472Z,19.55
2022-09-11T08:10:27.603Z,20.45
2022-09-11T08:15:30.876Z,20.27
2022-09-11T08:20:33.106Z,19.92
2022-09-11T08:25:36.362Z,20.34
2022-09-11T08:30:39.595Z,20.45
2022-09-11T08:35:42.604Z,20.04
2022-09-11T08:40:45.607Z,19.77
2022-09-11T08:45:49.579Z,18.80
2022-09-11T08:50:51.848Z,17.67
2022-09-11T08:56:06.197Z,18.77
2022-09-11T09:01:37.267Z,20.01
2022-09-11T09:07:06.549Z,20.18
2022-09-11T09:12:28.372Z,20.57
2022-09-11T09:17:37.432Z,21.54
2022-09-11T09:23:17.774Z,21.41
2022-09-11T09:28:32.313Z,21.26
2022-09-11T09:33:48.833Z,21.46
2022-09-11T09:38:53.798Z,21.36
2022-09-11T09:44:00.932Z,20.79
2022-09-11T09:49:03.249Z,21.04
2022-09-11T09:54:06.152Z,20.90
2022-09-11T09:59:27.309Z,20.67
2022-09-11T10:04:30.442Z,19.74
2022-09-11T10:09:33.698Z,19.43
2022-09-11T10:14:52.210Z,19.77
2022-09-11T10:19:57.197Z,19.76
2022-09-11T10:25:06.803Z,20.02
2022-09-11T10:30:25.597Z,21.06
2022-09-11T10:35:31.162Z,22.47
2022-09-11T10:40:33.815Z,22.92
2022-09-11T10:45:35.952Z,23.64
2022-09-11T10:50:38.186Z,23.69
2022-09-11T10:55:46.007Z,23.44
2022-09-11T11:00:51.851Z,23.91
2022-09-11T11:06:20.106Z,24.26
2022-09-11T11:11:40.787Z,24.31
2022-09-11T11:16:54.966Z,24.71
2022-09-11T11:22:15.077Z,24.58
2022-09-11T11:27:54.041Z,24.57
2022-09-11T11:33:20.893Z,24.96
2022-09-11T11:38:47.409Z,25.22
2022-09-11T11:43:52.964Z,25.54
2022-09-11T11:49:20.929Z,24.85
2022-09-11T11:54:32.985Z,25.46
2022-09-11T12:00:10.645Z,25.23
2022-09-11T12:05:24.251Z,26.37
2022-09-11T12:10:29.563Z,27.29
2022-09-11T12:15:34.764Z,28.22
2022-09-11T12:20:40.815Z,28.42
2022-09-11T12:25:50.129Z,28.86
2022-09-11T12:30:58.428Z,28.29
2022-09-11T12:36:00.884Z,28.79
2022-09-11T12:41:13.594Z,28.94
2022-09-11T12:46:21.824Z,28.97
2022-09-11T12:51:32.796Z,28.90
2022-09-11T12:56:35.231Z,28.94
2022-09-11T13:01:47.070Z,28.78
2022-09-11T13:06:56.256Z,28.68
2022-09-11T13:12:18.706Z,28.53
2022-09-11T13:17:45.122Z,28.62
2022-09-11T13:22:48.896Z,28.93
2022-09-11T13:27:54.126Z,29.02
2022-09-11T13:33:09.346Z,29.31
2022-09-11T13:38:24.070Z,29.78
2022-09-11T13:43:41.817Z,30.07
2022-09-11T13:48:46.025Z,31.00
2022-09-11T13:54:04.270Z,30.85
2022-09-11T13:59:42.382Z,30.42
2022-09-11T14:04:46.403Z,31.04
2022-09-11T14:10:04.295Z,30.79
2022-09-11T14:15:18.929Z,31.23
2022-09-11T14:20:21.421Z,31.17
2022-09-11T14:25:24.345Z,31.47
2022-09-11T14:30:34.783Z,31.68
2022-09-11T14:35:39.555Z,31.62
2022-09-11T14:40:48.747Z,32.01
2022-09-11T14:45:52.111Z,31.98
2022-09-11T14:50:54.612Z,32.20
2022-09-11T14:55:58.787Z,31.99
2022-09-11T15:01:02.508Z,31.89
2022-09-11T15:06:04.932Z,32.76
2022-09-11T15:11:07.540Z,32.78
2022-09-11T15:16:09.761Z,33.44
2022-09-11T15:21:13.170Z,33.54
2022-09-11T15:26:15.682Z,33.78
2022-09-11T15:31:18.809Z,33.80
2022-09-11T15:36:25.064Z,34.26
2022-09-11T15:41:28.165Z,34.44
2022-09-11T15:46:31.417Z,34.59
2022-09-11T15:51:33.945Z,34.89
2022-09-11T15:56:36.294Z,34.97
2022-09-11T16:01:39.818Z,35.12
2022-09-11T16:06:45.262Z,35.09
2022-09-11T16:11:50.647Z,35.86
2022-09-11T16:16:54.686Z,35.42
2022-09-11T16:21:58.891Z,35.65
2022-09-11T16:27:01.781Z,35.85
2022-09-11T16:32:04.389Z,35.70
2022-09-11T16:37:06.612Z,36.39
2022-09-11T16:42:08.847Z,36.60
2022-09-11T16:47:10.812Z,33.18
2022-09-11T16:52:13.237Z,36.09
2022-09-11T16:57:15.519Z,37.34
2022-09-11T17:02:17.739Z,33.63
2022-09-11T17:07:21.120Z,36.97
2022-09-11T17:12:23.616Z,36.93
2022-09-11T17:17:25.910Z,37.09
2022-09-11T17:22:29.856Z,37.47
2022-09-11T17:27:32.379Z,37.11
2022-09-11T17:32:34.674Z,37.17
2022-09-11T17:37:37.743Z,37.52
2022-09-11T17:42:40.571Z,37.64
2022-09-11T17:47:43.310Z,38.29
2022-09-11T17:52:45.576Z,38.54
2022-09-11T17:57:54.618Z,39.04
2022-09-11T18:02:58.902Z,39.34
2022-09-11T18:08:02.530Z,39.99
2022-09-11T18:13:04.869Z,40.16
2022-09-11T18:18:07.416Z,40.03
2022-09-11T18:23:11.566Z,40.15
2022-09-11T18:28:13.972Z,39.50
2022-09-11T18:33:17.016Z,40.62
2022-09-11T18:38:20.240Z,41.07
2022-09-11T18:43:23.183Z,41.20
2022-09-11T18:48:29.562Z,41.32
2022-09-11T18:53:37.139Z,41.37
2022-09-11T18:58:40.326Z,42.24
2022-09-11T19:03:44.356Z,41.81
2022-09-11T19:08:48.497Z,42.09
2022-09-11T19:13:53.568Z,42.21
2022-09-11T19:18:55.879Z,42.51
2022-09-11T19:24:00.772Z,42.57
2022-09-11T19:29:03.215Z,41.97
2022-09-11T19:34:05.692Z,42.31
2022-09-11T19:39:09.611Z,42.51
2022-09-11T19:44:13.749Z,42.05
2022-09-11T19:49:15.926Z,42.57
2022-09-11T19:54:17.827Z,39.48
2022-09-11T19:59:19.958Z,42.92
2022-09-11T20:04:22.699Z,39.76
2022-09-11T20:09:31.311Z,39.63
2022-09-11T20:14:34.024Z,43.41
2022-09-11T20:19:36.186Z,43.05
2022-09-11T20:24:38.579Z,40.48
2022-09-11T20:29:41.877Z,43.27
2022-09-11T20:34:43.939Z,43.57
2022-09-11T20:39:46.057Z,43.75
2022-09-11T20:44:49.169Z,40.91
2022-09-11T20:49:51.214Z,44.04
2022-09-11T20:54:54.408Z,44.67
2022-09-11T20:59:56.511Z,44.08
2022-09-11T21:05:00.549Z,41.71
2022-09-11T21:10:03.196Z,44.08
2022-09-11T21:15:07.520Z,44.93
2022-09-11T21:20:09.901Z,44.66
2022-09-11T21:25:12.095Z,44.67
2022-09-11T21:30:14.130Z,42.40
2022-09-11T21:35:16.334Z,44.41
2022-09-11T21:40:18.417Z,41.97
2022-09-11T21:45:20.514Z,45.52
2022-09-11T21:50:22.800Z,45.39
2022-09-11T21:55:24.859Z,45.53
2022-09-11T22:00:26.912Z,45.68
2022-09-11T22:05:29.312Z,45.84
2022-09-11T22:10:31.505Z,45.99
2022-09-11T22:15:33.461Z,43.00
2022-09-11T22:20:39.074Z,45.36
2022-09-11T22:25:41.314Z,45.79
2022-09-11T22:30:44.307Z,45.52
2022-09-11T22:35:49.356Z,45.84
2022-09-11T22:40:53.582Z,45.70
2022-09-11T22:45:55.732Z,46.14
2022-09-11T22:50:57.751Z,43.14
2022-09-11T22:55:59.976Z,46.00
2022-09-11T23:01:03.817Z,46.14
2022-09-11T23:06:24.695Z,46.25
2022-09-11T23:11:28.477Z,46.28
2022-09-11T23:16:31.329Z,46.60
2022-09-11T23:21:35.658Z,46.18
2022-09-11T23:26:37.761Z,45.64
2022-09-11T23:31:40.435Z,43.73
2022-09-11T23:36:42.966Z,43.41
2022-09-11T23:41:45.031Z,42.37
2022-09-11T23:46:47.661Z,46.85
2022-09-11T23:51:50.074Z,48.13
2022-09-11T23:56:52.211Z,49.23
